createdAt,value
2023-02-23T08:34:52.656Z,51.35
2023-02-23T08:38:18.135Z,53.78
2023-02-23T08:40:48.856Z,53.67
2023-02-23T08:43:29.189Z,54.97
2023-02-23T08:49:23.742Z,49.80
2023-02-23T08:52:06.606Z,48.95
2023-02-23T09:25:32.518Z,52.45
2023-02-23T11:33:57.970Z,70.68
2023-02-23T11:49:25.376Z,69.50
2023-02-23T11:52:00.223Z,65.72
2023-02-23T14:44:31.327Z,79.20
2023-02-23T14:47:10.416Z,69.90
2023-02-23T14:49:40.723Z,76.80
2023-02-23T14:54:34.966Z,78.72
2023-02-23T14:57:03.305Z,76.30
2023-02-23T14:59:42.013Z,75.03
2023-02-23T15:02:22.181Z,80.55
2023-02-23T15:04:48.672Z,87.82
2023-02-23T15:07:18.781Z,79.32
2023-02-23T15:09:46.624Z,75.68
2023-02-23T15:12:15.332Z,70.30
2023-02-23T15:14:42.514Z,81.00
2023-02-23T15:17:17.704Z,68.45
2023-02-23T15:19:45.148Z,71.90
2023-02-23T15:22:24.735Z,67.40
2023-02-23T15:24:59.306Z,73.57
2023-02-23T15:27:32.995Z,69.95
2023-02-23T15:30:37.053Z,57.55
2023-02-23T15:33:48.035Z,61.42
2023-02-23T15:36:26.494Z,54.22
2023-02-23T15:41:36.886Z,38.78
2023-02-23T15:44:07.646Z,34.10
2023-02-23T15:46:34.255Z,40.63
2023-02-23T15:49:03.230Z,32.88
2023-02-23T15:51:29.656Z,32.83
2023-02-23T15:53:56.137Z,27.17
2023-02-23T15:56:27.725Z,26.83
2023-02-23T15:59:01.623Z,31.05
2023-02-23T16:01:31.820Z,28.65
2023-02-23T16:04:09.348Z,30.23
2023-02-23T16:06:38.170Z,25.08
2023-02-23T16:09:34.298Z,27.38
2023-02-23T16:12:02.790Z,25.70
2023-02-23T16:14:33.540Z,29.88
2023-02-23T16:17:11.473Z,25.98
2023-02-23T16:19:43.712Z,28.33
2023-02-23T16:22:16.767Z,26.35
2023-02-23T16:24:43.547Z,25.85
2023-02-23T16:27:12.060Z,25.85
2023-02-23T16:29:44.054Z,26.30
2023-02-23T16:32:16.542Z,26.60
2023-02-23T16:34:56.505Z,22.48
2023-02-23T16:37:26.028Z,26.92
2023-02-23T16:39:52.659Z,28.35
2023-02-23T16:42:32.710Z,27.52
2023-02-23T16:45:00.488Z,26.20
2023-02-23T16:47:36.587Z,26.23
2023-02-23T16:50:19.145Z,29.23
2023-02-23T16:52:46.422Z,31.85
2023-02-23T16:55:17.838Z,27.25
2023-02-23T16:57:51.822Z,31.02
2023-02-23T17:00:22.844Z,32.13
2023-02-23T17:02:50.860Z,32.72
2023-02-23T17:05:19.283Z,32.10
2023-02-23T17:07:46.234Z,31.15
2023-02-23T17:10:25.059Z,32.33
2023-02-23T17:12:55.590Z,31.40
2023-02-23T17:15:23.028Z,36.15
2023-02-23T17:17:52.323Z,30.83
2023-02-23T17:20:21.483Z,29.15
2023-02-23T17:22:50.795Z,34.67
2023-02-23T17:25:19.634Z,30.73
2023-02-23T17:27:46.311Z,27.40
2023-02-23T17:30:12.985Z,35.75
2023-02-23T17:32:39.576Z,31.73
2023-02-23T17:35:06.660Z,34.75
2023-02-23T17:37:33.087Z,31.88
2023-02-23T17:39:59.542Z,32.75
2023-02-23T17:42:33.988Z,32.50
2023-02-23T17:45:04.539Z,32.97
2023-02-23T17:47:31.868Z,35.97
2023-02-23T17:49:59.020Z,34.35
2023-02-23T17:52:25.535Z,33.45
2023-02-23T17:54:53.527Z,31.67
2023-02-23T17:57:21.165Z,34.58
2023-02-23T17:59:47.842Z,35.75
2023-02-23T18:02:16.553Z,34.97
2023-02-23T18:05:00.595Z,37.97
2023-02-23T18:07:31.632Z,34.45
2023-02-23T18:09:58.203Z,33.42
2023-02-23T18:12:27.730Z,31.48
2023-02-23T18:15:10.853Z,36.10
2023-02-23T18:17:38.254Z,45.50
2023-02-23T18:20:06.081Z,48.25
2023-02-23T18:22:34.948Z,36.17
2023-02-23T18:25:06.114Z,42.00
2023-02-23T18:27:32.702Z,39.97
2023-02-23T18:29:59.331Z,35.35
2023-02-23T18:32:25.893Z,41.00
2023-02-23T18:34:52.506Z,34.20
2023-02-23T18:37:31.118Z,35.75
2023-02-23T18:40:05.905Z,32.40
2023-02-23T18:42:38.789Z,36.05
2023-02-23T18:45:06.003Z,30.15
2023-02-23T18:47:56.065Z,33.35
2023-02-23T18:50:22.726Z,28.90
2023-02-23T18:52:53.262Z,27.45
2023-02-23T18:55:24.843Z,26.30
2023-02-23T18:57:53.363Z,27.35
2023-02-23T19:00:22.765Z,30.42
2023-02-23T19:02:55.101Z,28.53
2023-02-23T19:05:23.826Z,26.55
2023-02-23T19:08:01.329Z,24.33
2023-02-23T19:10:30.436Z,25.02
2023-02-23T19:12:58.489Z,27.35
2023-02-23T19:15:38.052Z,25.58
2023-02-23T19:18:07.896Z,24.40
2023-02-23T19:20:38.637Z,28.65
2023-02-23T19:23:05.730Z,28.92
2023-02-23T19:25:32.975Z,26.95
2023-02-23T19:27:59.612Z,26.73
2023-02-23T19:30:31.475Z,27.88
2023-02-23T19:33:01.278Z,25.08
2023-02-23T19:35:27.816Z,23.60
2023-02-23T19:37:54.746Z,26.45
2023-02-23T19:40:22.930Z,29.67
2023-02-23T19:42:53.461Z,28.88
2023-02-23T19:45:22.486Z,28.33
2023-02-23T19:47:51.351Z,25.00
2023-02-23T19:50:19.078Z,29.10
2023-02-23T19:52:48.977Z,28.30
2023-02-23T19:55:17.246Z,30.98
2023-02-23T19:57:43.902Z,30.23
2023-02-23T20:00:16.229Z,29.13
2023-02-23T20:02:52.333Z,37.50
2023-02-23T20:05:18.913Z,36.17
2023-02-23T20:07:55.200Z,29.85
2023-02-23T20:10:25.901Z,29.42
2023-02-23T20:12:53.392Z,25.55
2023-02-23T20:15:21.904Z,31.40
2023-02-23T20:17:48.688Z,28.85
2023-02-23T20:20:17.787Z,23.95
2023-02-23T20:29:01.734Z,27.38
2023-02-23T20:31:31.061Z,28.00
2023-02-23T20:34:02.058Z,32.10
2023-02-23T20:36:28.580Z,26.52
2023-02-23T20:38:55.747Z,28.40
2023-02-23T20:41:28.174Z,25.15
2023-02-23T20:44:01.398Z,24.50
2023-02-23T20:46:35.743Z,24.55
2023-02-23T20:49:17.208Z,25.52
2023-02-23T20:51:54.594Z,26.38
2023-02-23T20:54:21.260Z,30.45
2023-02-23T20:57:12.678Z,29.95
2023-02-23T20:59:39.388Z,26.48
2023-02-23T21:02:06.319Z,24.10
2023-02-23T21:04:35.951Z,25.25
2023-02-23T21:07:07.047Z,28.23
2023-02-23T21:09:40.078Z,27.05
2023-02-23T21:12:08.472Z,27.08
2023-02-23T21:14:39.969Z,23.10
2023-02-23T21:17:11.062Z,31.77
2023-02-23T21:19:39.972Z,27.27
2023-02-23T21:22:06.533Z,27.75
2023-02-23T21:24:38.888Z,28.83
2023-02-23T21:27:05.466Z,34.25
2023-02-23T21:29:31.868Z,28.00
2023-02-23T21:31:58.464Z,32.88
2023-02-23T21:34:27.669Z,33.58
2023-02-23T21:36:59.381Z,30.38
2023-02-23T21:39:28.168Z,33.15
2023-02-23T21:41:56.157Z,31.88
2023-02-23T21:44:26.821Z,29.00
2023-02-23T21:46:53.412Z,30.60
2023-02-23T21:49:20.347Z,28.13
2023-02-23T21:51:49.063Z,24.23
2023-02-23T21:54:15.887Z,25.58
2023-02-23T21:56:42.406Z,23.33
2023-02-23T21:59:11.548Z,28.75
2023-02-23T22:01:39.126Z,28.92
2023-02-23T22:04:08.997Z,33.38
2023-02-23T22:06:40.592Z,32.97
2023-02-23T22:09:11.638Z,26.67
2023-02-23T22:11:39.195Z,32.80
2023-02-23T22:14:06.798Z,26.85
2023-02-23T22:16:35.996Z,29.65
2023-02-23T22:19:04.427Z,22.75
2023-02-23T22:21:42.050Z,26.83
2023-02-23T22:24:12.308Z,34.67
2023-02-23T22:26:41.806Z,26.17
2023-02-23T22:29:10.042Z,27.27
2023-02-23T22:31:37.268Z,23.85
2023-02-23T22:34:04.348Z,29.67
2023-02-23T22:36:31.357Z,28.70
2023-02-23T22:39:00.315Z,29.08
2023-02-23T22:41:29.774Z,29.48
2023-02-23T22:43:56.698Z,31.77
2023-02-23T22:46:23.707Z,29.95
2023-02-23T22:48:50.113Z,30.55
2023-02-23T22:51:17.888Z,31.98
2023-02-23T22:53:44.645Z,33.58
2023-02-23T22:56:11.748Z,25.95
2023-02-23T22:58:38.280Z,30.50
2023-02-23T23:01:06.322Z,30.92
2023-02-23T23:03:36.331Z,31.80
2023-02-23T23:06:06.325Z,27.80
2023-02-23T23:08:37.034Z,28.60
2023-02-23T23:11:09.434Z,35.90
2023-02-23T23:13:37.170Z,29.90
2023-02-23T23:16:25.550Z,28.30
2023-02-23T23:19:02.753Z,34.85
2023-02-23T23:21:34.459Z,33.10
2023-02-23T23:24:05.877Z,27.92
2023-02-23T23:26:39.736Z,29.67
2023-02-23T23:29:10.254Z,32.55
2023-02-23T23:31:38.068Z,35.00
2023-02-23T23:34:06.587Z,33.60
2023-02-23T23:36:37.400Z,32.33
2023-02-23T23:39:30.049Z,35.85
2023-02-23T23:41:56.701Z,33.38
2023-02-23T23:44:24.423Z,31.75
2023-02-23T23:46:51.028Z,24.20
2023-02-23T23:49:20.815Z,20.50
2023-02-23T23:51:50.679Z,30.58
2023-02-23T23:54:18.484Z,24.35
2023-02-23T23:56:45.254Z,23.52
2023-02-23T23:59:17.172Z,23.80
